createdAt,value
2023-02-04T00:01:00.163Z,61544
2023-02-04T00:06:01.954Z,61544
2023-02-04T00:11:03.608Z,61544
2023-02-04T00:16:05.645Z,15344
2023-02-04T00:21:07.281Z,15344
2023-02-04T00:26:08.908Z,5544
2023-02-04T00:31:10.583Z,8744
2023-02-04T00:36:12.183Z,863.40299
2023-02-04T00:41:13.796Z,1810.66667
2023-02-04T00:46:15.482Z,799.55556
2023-02-04T00:51:17.302Z,1084.74074
2023-02-04T00:56:18.905Z,921.77778
2023-02-04T01:01:20.620Z,1523.48718
2023-02-04T01:06:22.318Z,5077.33333
2023-02-04T01:11:24.037Z,2877.33333
2023-02-04T01:16:25.770Z,2877.33333
2023-02-04T01:21:27.484Z,1106.26415
2023-02-04T01:26:29.271Z,613.56522
2023-02-04T01:31:31.108Z,733.74359
2023-02-04T01:36:32.765Z,479.65217
2023-02-04T01:41:34.516Z,592.42105
2023-02-04T01:46:36.159Z,754.52632
2023-02-04T01:51:37.806Z,363.04762
2023-02-04T01:56:39.409Z,346.61438
2023-02-04T02:01:41.034Z,572.57143
2023-02-04T02:06:42.773Z,1376.55814
2023-02-04T02:11:44.393Z,765.33333
2023-02-04T02:16:46.112Z,304.23392
2023-02-04T02:21:47.795Z,461.64706
2023-02-04T02:26:49.396Z,733.74359
2023-02-04T02:31:51.228Z,714
2023-02-04T02:36:52.994Z,461.64706
2023-02-04T02:41:54.758Z,393.63504
2023-02-04T02:46:56.425Z,344
2023-02-04T02:51:58.192Z,269.92593
2023-02-04T02:56:59.892Z,235.94313
2023-02-04T03:02:02.349Z,207.24786
2023-02-04T03:07:04.053Z,252
2023-02-04T03:12:05.708Z,354.66667
2023-02-04T03:17:07.349Z,326.6087
2023-02-04T03:22:09.108Z,288.13408
2023-02-04T03:27:10.738Z,290.06742
2023-02-04T03:32:12.382Z,312.86228
2023-02-04T03:37:13.975Z,365.91781
2023-02-04T03:42:15.699Z,271.65957
2023-02-04T03:47:17.386Z,271.65957
2023-02-04T03:52:19.056Z,331.42138
2023-02-04T03:57:20.682Z,331.42138
2023-02-04T04:02:22.326Z,336.35669
2023-02-04T04:07:23.952Z,268.21053
2023-02-04T04:12:25.611Z,222.73303
2023-02-04T04:17:27.235Z,238.73684
2023-02-04T04:22:28.857Z,200.66667
2023-02-04T04:27:30.567Z,183.68872
2023-02-04T04:32:32.302Z,290.06742
2023-02-04T04:37:34.004Z,354.66667
2023-02-04T04:42:35.643Z,336.35669
2023-02-04T04:47:37.315Z,374.76923
2023-02-04T04:52:39.056Z,310.66667
2023-02-04T04:57:40.943Z,331.42138
2023-02-04T05:02:42.658Z,360.21622
2023-02-04T05:07:44.530Z,714
2023-02-04T05:12:46.193Z,765.33333
2023-02-04T05:17:47.882Z,585.66667
2023-02-04T05:22:49.657Z,628.44444
2023-02-04T05:27:51.404Z,1254.6383
2023-02-04T05:32:53.094Z,1044
2023-02-04T05:37:54.810Z,723.74684
2023-02-04T05:42:56.436Z,530.66667
2023-02-04T05:47:58.064Z,407.15789
2023-02-04T05:52:59.926Z,421.51938
2023-02-04T05:58:01.586Z,504
2023-02-04T06:03:03.305Z,754.52632
2023-02-04T06:08:05.059Z,836.75362
2023-02-04T06:13:06.931Z,714
2023-02-04T06:18:08.741Z,1064
2023-02-04T06:23:10.560Z,906.5
2023-02-04T06:28:12.329Z,921.77778
2023-02-04T06:33:14.161Z,652.04598
2023-02-04T06:38:15.861Z,444.81301
2023-02-04T06:43:17.556Z,336.35669
2023-02-04T06:48:19.256Z,380.87943
2023-02-04T06:53:20.933Z,628.44444
2023-02-04T06:58:22.739Z,723.74684
2023-02-04T07:03:24.437Z,970.66667
2023-02-04T07:08:26.117Z,891.69231
2023-02-04T07:13:27.821Z,1810.66667
2023-02-04T07:18:29.807Z,2068.13793
2023-02-04T07:23:31.648Z,2744
2023-02-04T07:28:33.358Z,4344
2023-02-04T07:33:35.106Z,1810.66667
2023-02-04T07:38:36.849Z,1006.06897
2023-02-04T07:43:38.530Z,1344
2023-02-04T07:48:40.344Z,1810.66667
2023-02-04T07:53:42.103Z,3366.22222
2023-02-04T07:58:43.855Z,4682.46154
2023-02-04T08:03:45.656Z,2877.33333
2023-02-04T08:08:47.307Z,3366.22222
2023-02-04T08:13:49.134Z,8744
2023-02-04T08:18:50.841Z,10210.66667
2023-02-04T08:23:52.717Z,20477.33333
2023-02-04T08:28:54.373Z,20477.33333
2023-02-04T08:33:56.305Z,8744
2023-02-04T08:38:58.144Z,6788.44444
2023-02-04T08:43:59.866Z,4050.66667
2023-02-04T08:49:01.548Z,3186.10526
2023-02-04T08:54:03.325Z,2313.23077
2023-02-04T08:59:05.131Z,1254.6383
2023-02-04T09:04:06.828Z,1869
2023-02-04T09:09:08.510Z,2068.13793
2023-02-04T09:14:10.245Z,1312.88889
2023-02-04T09:19:11.951Z,1344
2023-02-04T09:24:13.658Z,1344
2023-02-04T09:29:15.319Z,988.0678
2023-02-04T09:34:17.016Z,1064
2023-02-04T09:39:18.700Z,686.16867
2023-02-04T09:44:20.505Z,660.27907
2023-02-04T09:49:22.199Z,1044
2023-02-04T09:54:23.890Z,1312.88889
2023-02-04T09:59:25.471Z,1176
2023-02-04T10:04:27.213Z,1810.66667
2023-02-04T10:09:28.892Z,2510.66667
2023-02-04T10:14:30.562Z,2622.26087
2023-02-04T10:19:32.233Z,3794
2023-02-04T10:24:33.965Z,3794
2023-02-04T10:29:35.622Z,2877.33333
2023-02-04T10:34:37.420Z,3567.52941
2023-02-04T10:39:39.204Z,6104
2023-02-04T10:44:40.870Z,3567.52941
2023-02-04T10:49:42.584Z,2877.33333
2023-02-04T10:54:44.392Z,5077.33333
2023-02-04T10:59:46.051Z,2744
2023-02-04T11:04:47.760Z,1931.09677
2023-02-04T11:09:49.487Z,2510.66667
2023-02-04T11:14:51.184Z,1655.11111
2023-02-04T11:19:52.874Z,1254.6383
2023-02-04T11:24:54.564Z,1201.14286
2023-02-04T11:29:56.586Z,1106.26415
2023-02-04T11:34:58.243Z,1044
2023-02-04T11:39:59.893Z,686.16867
2023-02-04T11:45:01.627Z,953.83607
2023-02-04T11:50:03.233Z,553.90099
2023-02-04T11:55:05.063Z,579.05155
2023-02-04T12:00:06.769Z,579.05155
2023-02-04T12:05:08.383Z,636.13483
2023-02-04T12:10:10.018Z,765.33333
2023-02-04T12:15:11.899Z,1024.70175
2023-02-04T12:20:13.620Z,937.54839
2023-02-04T12:25:15.721Z,668.70588
2023-02-04T12:30:17.497Z,824
2023-02-04T12:35:19.257Z,613.56522
2023-02-04T12:40:20.982Z,863.40299
2023-02-04T12:45:22.766Z,599.31915
2023-02-04T12:50:24.492Z,877.33333
2023-02-04T12:55:26.225Z,921.77778
2023-02-04T13:00:27.935Z,613.56522
2023-02-04T13:05:29.865Z,421.51938
2023-02-04T13:10:31.572Z,360.21622
2023-02-04T13:15:33.649Z,453.09091
2023-02-04T13:20:35.509Z,338.87179
2023-02-04T13:25:37.279Z,300.06936
2023-02-04T13:30:39.036Z,280.61202
2023-02-04T13:35:40.761Z,276.97297
2023-02-04T13:40:42.457Z,237.33333
2023-02-04T13:45:44.301Z,290.06742
2023-02-04T13:50:46.242Z,466.0339
2023-02-04T13:55:48.272Z,268.21053
2023-02-04T14:00:50.013Z,1283.13043
2023-02-04T14:05:51.741Z,599.31915
2023-02-04T14:10:53.656Z,403.70149
2023-02-04T14:15:55.305Z,319.60976
2023-02-04T14:20:57.002Z,374.76923
2023-02-04T14:25:58.978Z,324.24691
2023-02-04T14:31:00.790Z,284.33149
2023-02-04T14:36:02.642Z,310.66667
2023-02-04T14:41:04.407Z,296
2023-02-04T14:46:06.108Z,393.63504
2023-02-04T14:51:07.999Z,269.92593
2023-02-04T14:56:09.785Z,231.85047
2023-02-04T15:01:11.792Z,252
2023-02-04T15:06:13.859Z,200.66667
2023-02-04T15:11:15.603Z,181.83784
2023-02-04T15:16:17.312Z,268.21053
2023-02-04T15:21:19.232Z,288.13408
2023-02-04T15:26:20.991Z,324.24691
2023-02-04T15:31:22.809Z,333.87342
2023-02-04T15:36:24.605Z,354.66667
2023-02-04T15:41:26.264Z,357.42282
2023-02-04T15:46:28.127Z,365.91781
2023-02-04T15:51:29.917Z,387.16547
2023-02-04T15:56:31.619Z,380.87943
2023-02-04T16:01:33.761Z,504
2023-02-04T16:06:35.623Z,331.42138
2023-02-04T16:11:37.241Z,396.94118
2023-02-04T16:16:38.930Z,440.77419
2023-02-04T16:21:40.563Z,338.87179
2023-02-04T16:26:42.260Z,273.41176
2023-02-04T16:31:43.988Z,315.08434
2023-02-04T16:36:45.976Z,264.83333
2023-02-04T16:41:47.649Z,300.06936
2023-02-04T16:46:49.430Z,310.66667
2023-02-04T16:51:51.184Z,286.22222
2023-02-04T16:56:52.923Z,620.92308
2023-02-04T17:01:54.594Z,2313.23077
2023-02-04T17:06:56.400Z,849.88235
2023-02-04T17:11:58.047Z,542.05825
2023-02-04T17:16:59.872Z,509.13761
2023-02-04T17:22:01.497Z,475.03448
2023-02-04T17:27:03.304Z,1084.74074
2023-02-04T17:32:04.952Z,1376.55814
2023-02-04T17:37:06.699Z,1128.61538
2023-02-04T17:42:08.336Z,1044
2023-02-04T17:47:09.977Z,1344
2023-02-04T17:52:11.887Z,2622.26087
2023-02-04T17:57:13.499Z,4050.66667
2023-02-04T18:02:15.277Z,6104
2023-02-04T18:07:17.364Z,4344
2023-02-04T18:12:19.076Z,6104
2023-02-04T18:17:20.695Z,5077.33333
2023-02-04T18:22:22.316Z,3794
2023-02-04T18:27:24.726Z,3794
2023-02-04T18:32:26.558Z,4344
2023-02-04T18:37:28.216Z,6104
2023-02-04T18:42:29.802Z,6104
2023-02-04T18:47:31.853Z,5544
2023-02-04T18:52:33.621Z,5544
2023-02-04T18:57:35.318Z,15344
2023-02-04T19:02:37.076Z,30744
2023-02-04T19:07:38.799Z,61544
2023-02-04T19:12:40.472Z,61544
2023-02-04T19:17:42.122Z,30744
2023-02-04T19:22:43.840Z,0
2023-02-04T19:27:45.679Z,0
2023-02-04T19:32:47.622Z,61544
2023-02-04T19:37:49.255Z,61544
2023-02-04T19:42:50.894Z,61544
2023-02-04T19:47:52.527Z,0
2023-02-04T19:52:54.176Z,0
2023-02-04T19:57:55.979Z,0
2023-02-04T20:02:57.862Z,61544
2023-02-04T20:07:59.465Z,0
2023-02-04T20:13:01.398Z,0
2023-02-04T20:18:03.017Z,0
2023-02-04T20:23:04.746Z,0
2023-02-04T20:28:06.466Z,0
2023-02-04T20:33:08.167Z,0
2023-02-04T20:38:10.111Z,0
2023-02-04T20:43:11.980Z,0
2023-02-04T20:48:13.658Z,0
2023-02-04T20:53:15.297Z,0
2023-02-04T20:58:16.904Z,0
2023-02-04T21:03:18.523Z,0
2023-02-04T21:08:20.258Z,-61656
2023-02-04T21:13:21.928Z,0
2023-02-04T21:18:23.699Z,0
2023-02-04T21:23:25.451Z,0
2023-02-04T21:28:27.045Z,0
2023-02-04T21:33:28.808Z,0
2023-02-04T21:38:30.544Z,0
2023-02-04T21:43:32.242Z,0
2023-02-04T21:48:33.903Z,0
2023-02-04T21:53:35.572Z,0
2023-02-04T21:58:37.301Z,0
2023-02-04T22:03:38.972Z,0
2023-02-04T22:08:40.639Z,0
2023-02-04T22:13:42.303Z,0
2023-02-04T22:18:43.978Z,0
2023-02-04T22:23:45.676Z,0
2023-02-04T22:28:47.293Z,0
2023-02-04T22:33:49.003Z,0
2023-02-04T22:38:50.622Z,0
2023-02-04T22:43:52.227Z,0
2023-02-04T22:48:53.905Z,0
2023-02-04T22:53:55.518Z,0
2023-02-04T22:58:57.221Z,0
2023-02-04T23:03:58.892Z,0
2023-02-04T23:09:00.584Z,0
2023-02-04T23:14:02.364Z,0
2023-02-04T23:19:04.395Z,0
2023-02-04T23:24:06.044Z,0
2023-02-04T23:29:07.712Z,0
2023-02-04T23:34:09.376Z,0
2023-02-04T23:39:11.052Z,0
2023-02-04T23:44:12.961Z,0
2023-02-04T23:49:14.618Z,0
2023-02-04T23:54:16.279Z,0
2023-02-04T23:59:18.214Z,61544
